createdAt,value
2023-10-08T00:02:26.144Z,17.17
2023-10-08T00:04:55.087Z,17.10
2023-10-08T00:07:22.416Z,17.03
2023-10-08T00:09:51.546Z,16.95
2023-10-08T00:12:18.538Z,16.90
2023-10-08T00:14:49.745Z,16.85
2023-10-08T00:17:18.148Z,16.79
2023-10-08T00:19:44.938Z,16.72
2023-10-08T00:22:13.464Z,16.66
2023-10-08T00:24:42.033Z,16.60
2023-10-08T00:27:09.598Z,16.53
2023-10-08T00:29:40.885Z,16.48
2023-10-08T00:32:12.596Z,16.42
2023-10-08T00:34:42.317Z,16.36
2023-10-08T00:37:11.321Z,16.30
2023-10-08T00:39:40.189Z,16.24
2023-10-08T00:42:08.267Z,16.18
2023-10-08T00:44:41.892Z,16.12
2023-10-08T00:47:12.355Z,16.07
2023-10-08T00:49:41.659Z,16.04
2023-10-08T00:52:12.772Z,15.99
2023-10-08T00:54:52.165Z,15.94
2023-10-08T00:57:22.327Z,15.89
2023-10-08T00:59:56.742Z,15.82
2023-10-08T01:02:28.413Z,15.74
2023-10-08T01:04:55.958Z,15.66
2023-10-08T01:07:24.233Z,15.60
2023-10-08T01:09:51.930Z,15.56
2023-10-08T01:12:29.008Z,15.51
2023-10-08T01:15:00.636Z,15.47
2023-10-08T01:17:32.783Z,15.44
2023-10-08T01:20:18.355Z,15.39
2023-10-08T01:22:45.309Z,15.33
2023-10-08T01:25:21.059Z,15.29
2023-10-08T01:27:48.117Z,15.24
2023-10-08T01:30:21.178Z,15.20
2023-10-08T01:32:48.557Z,15.15
2023-10-08T01:35:24.242Z,15.10
2023-10-08T01:37:51.397Z,15.07
2023-10-08T01:40:21.705Z,15.04
2023-10-08T01:42:52.110Z,15.01
2023-10-08T01:45:19.888Z,14.99
2023-10-08T01:47:52.005Z,14.96
2023-10-08T01:50:29.986Z,14.94
2023-10-08T01:52:57.233Z,14.91
2023-10-08T01:55:24.106Z,14.89
2023-10-08T01:57:54.174Z,14.87
2023-10-08T02:00:23.073Z,14.86
2023-10-08T02:02:51.007Z,14.85
2023-10-08T02:05:19.828Z,14.84
2023-10-08T02:07:46.538Z,14.83
2023-10-08T02:10:14.720Z,14.81
2023-10-08T02:12:42.455Z,14.81
2023-10-08T02:15:11.762Z,14.81
2023-10-08T02:17:41.657Z,14.80
2023-10-08T02:20:09.431Z,14.79
2023-10-08T02:22:36.512Z,14.78
2023-10-08T02:25:04.173Z,14.77
2023-10-08T02:27:33.708Z,14.76
2023-10-08T02:30:03.920Z,14.75
2023-10-08T02:32:32.659Z,14.74
2023-10-08T02:34:59.472Z,14.73
2023-10-08T02:37:26.423Z,14.72
2023-10-08T02:39:53.343Z,14.71
2023-10-08T02:42:20.534Z,14.69
2023-10-08T02:44:47.369Z,14.67
2023-10-08T02:47:23.028Z,14.62
2023-10-08T02:49:50.186Z,14.54
2023-10-08T02:52:16.955Z,14.46
2023-10-08T02:54:43.850Z,14.37
2023-10-08T02:57:14.678Z,14.30
2023-10-08T02:59:41.700Z,14.25
2023-10-08T03:02:21.985Z,14.21
2023-10-08T03:04:51.812Z,14.17
2023-10-08T03:07:33.528Z,14.14
2023-10-08T03:10:19.403Z,14.08
2023-10-08T03:12:47.473Z,14.04
2023-10-08T03:15:28.437Z,14.00
2023-10-08T03:17:58.167Z,13.97
2023-10-08T03:20:28.543Z,13.95
2023-10-08T03:22:57.725Z,13.94
2023-10-08T03:25:25.328Z,13.92
2023-10-08T03:27:54.714Z,13.90
2023-10-08T03:30:21.727Z,13.88
2023-10-08T03:32:56.057Z,13.86
2023-10-08T03:35:31.328Z,13.84
2023-10-08T03:38:18.103Z,13.82
2023-10-08T03:40:49.361Z,13.81
2023-10-08T03:43:35.581Z,13.80
2023-10-08T03:46:15.226Z,13.78
2023-10-08T03:48:45.434Z,13.77
2023-10-08T03:51:13.609Z,13.77
2023-10-08T03:53:59.442Z,13.77
2023-10-08T03:56:30.784Z,13.77
2023-10-08T03:59:01.251Z,13.77
2023-10-08T04:01:32.986Z,13.77
2023-10-08T04:04:01.366Z,13.78
2023-10-08T04:06:51.688Z,13.78
2023-10-08T04:09:25.833Z,13.77
2023-10-08T04:11:52.647Z,13.77
2023-10-08T04:14:20.525Z,13.77
2023-10-08T04:16:47.324Z,13.77
2023-10-08T04:19:18.877Z,13.76
2023-10-08T04:21:45.959Z,13.73
2023-10-08T04:24:15.223Z,13.71
2023-10-08T04:26:42.440Z,13.68
2023-10-08T04:29:09.242Z,13.66
2023-10-08T04:31:39.302Z,13.66
2023-10-08T04:34:22.760Z,13.62
2023-10-08T04:36:58.163Z,13.60
2023-10-08T04:39:32.692Z,13.58
2023-10-08T04:42:09.570Z,13.57
2023-10-08T04:44:39.444Z,13.55
2023-10-08T04:47:07.256Z,13.52
2023-10-08T04:49:34.902Z,13.49
2023-10-08T04:52:14.861Z,13.45
2023-10-08T04:54:51.669Z,13.43
2023-10-08T04:57:22.487Z,13.41
2023-10-08T04:59:51.004Z,13.39
2023-10-08T05:02:22.837Z,13.37
2023-10-08T05:04:52.825Z,13.35
2023-10-08T05:07:38.602Z,13.32
2023-10-08T05:10:08.403Z,13.28
2023-10-08T05:12:43.799Z,13.25
2023-10-08T05:15:13.195Z,13.22
2023-10-08T05:17:50.110Z,13.19
2023-10-08T05:20:37.334Z,13.18
2023-10-08T05:23:21.650Z,13.16
2023-10-08T05:26:07.013Z,13.13
2023-10-08T05:28:47.093Z,13.11
2023-10-08T05:31:15.542Z,13.12
2023-10-08T05:34:01.529Z,13.12
2023-10-08T05:36:36.547Z,13.10
2023-10-08T05:39:26.057Z,13.10
2023-10-08T05:42:13.617Z,13.11
2023-10-08T05:44:46.459Z,13.13
2023-10-08T05:47:34.630Z,13.15
2023-10-08T05:50:17.457Z,13.17
2023-10-08T05:53:02.689Z,13.19
2023-10-08T05:55:34.804Z,13.21
2023-10-08T05:58:21.292Z,13.24
2023-10-08T06:00:51.086Z,13.26
2023-10-08T06:03:37.194Z,13.28
2023-10-08T06:06:23.272Z,13.31
2023-10-08T06:09:21.586Z,13.33
2023-10-08T06:12:07.607Z,13.36
2023-10-08T06:15:03.499Z,13.39
2023-10-08T06:17:59.183Z,13.42
2023-10-08T06:20:27.219Z,13.44
2023-10-08T06:22:55.787Z,13.46
2023-10-08T06:25:26.470Z,13.47
2023-10-08T06:28:02.077Z,13.48
2023-10-08T06:30:35.387Z,13.49
2023-10-08T06:33:04.394Z,13.48
2023-10-08T06:35:33.430Z,13.47
2023-10-08T06:38:01.796Z,13.45
2023-10-08T06:40:38.080Z,13.42
2023-10-08T06:43:22.338Z,13.41
2023-10-08T06:45:52.868Z,13.39
2023-10-08T06:48:29.999Z,13.38
2023-10-08T06:50:59.356Z,13.35
2023-10-08T06:53:26.235Z,13.33
2023-10-08T06:55:57.033Z,13.30
2023-10-08T06:58:25.008Z,13.27
2023-10-08T07:00:52.789Z,13.24
2023-10-08T07:03:21.226Z,13.20
2023-10-08T07:05:58.364Z,13.18
2023-10-08T07:08:25.984Z,13.18
2023-10-08T07:10:53.290Z,13.15
2023-10-08T07:13:22.575Z,13.05
2023-10-08T07:15:50.703Z,12.83
2023-10-08T07:18:27.226Z,12.59
2023-10-08T07:20:54.917Z,12.40
2023-10-08T07:23:25.813Z,12.26
2023-10-08T07:25:53.669Z,12.12
2023-10-08T07:28:20.612Z,12.01
2023-10-08T07:30:49.927Z,11.95
2023-10-08T07:33:19.641Z,11.89
2023-10-08T07:36:13.280Z,11.83
2023-10-08T07:38:43.060Z,11.77
2023-10-08T07:41:13.430Z,11.74
2023-10-08T07:43:41.828Z,11.69
2023-10-08T07:46:10.410Z,11.65
2023-10-08T07:48:42.836Z,11.62
2023-10-08T07:51:09.453Z,11.59
2023-10-08T07:53:39.058Z,11.55
2023-10-08T07:56:11.486Z,11.49
2023-10-08T07:58:38.384Z,11.45
2023-10-08T08:01:10.195Z,11.39
2023-10-08T08:03:37.292Z,11.37
2023-10-08T08:06:06.687Z,11.36
2023-10-08T08:08:34.363Z,11.35
2023-10-08T08:11:06.058Z,11.33
2023-10-08T08:13:34.629Z,11.32
2023-10-08T08:16:09.937Z,11.31
2023-10-08T08:18:39.306Z,11.32
2023-10-08T08:21:14.741Z,11.30
2023-10-08T08:23:49.551Z,11.29
2023-10-08T08:26:52.396Z,11.29
2023-10-08T08:29:19.219Z,11.29
2023-10-08T08:31:47.096Z,11.30
2023-10-08T08:34:20.062Z,11.32
2023-10-08T08:36:49.614Z,11.33
2023-10-08T08:39:37.172Z,11.32
2023-10-08T08:42:04.890Z,11.32
2023-10-08T08:44:36.654Z,11.31
2023-10-08T08:47:05.099Z,11.32
2023-10-08T08:49:34.513Z,11.32
2023-10-08T08:52:01.552Z,11.33
2023-10-08T08:54:31.516Z,11.35
2023-10-08T08:57:03.269Z,11.37
2023-10-08T08:59:30.702Z,11.38
2023-10-08T09:02:00.390Z,11.36
2023-10-08T09:04:31.552Z,11.35
2023-10-08T09:07:00.231Z,11.37
2023-10-08T09:09:33.864Z,11.40
2023-10-08T09:12:00.768Z,11.43
2023-10-08T09:14:30.597Z,11.45
2023-10-08T09:16:57.383Z,11.47
2023-10-08T09:19:25.573Z,11.49
2023-10-08T09:22:09.795Z,11.51
2023-10-08T09:24:39.042Z,11.52
2023-10-08T09:27:10.060Z,11.53
2023-10-08T09:29:40.315Z,11.55
2023-10-08T09:32:11.265Z,11.56
2023-10-08T09:34:38.516Z,11.55
2023-10-08T09:37:05.454Z,11.56
2023-10-08T09:39:34.824Z,11.57
2023-10-08T09:42:12.178Z,11.58
2023-10-08T09:44:40.179Z,11.57
2023-10-08T09:47:09.227Z,11.55
2023-10-08T09:49:57.591Z,11.51
2023-10-08T09:52:30.968Z,11.48
2023-10-08T09:55:04.042Z,11.48
2023-10-08T09:57:31.313Z,11.47
2023-10-08T09:59:58.319Z,11.45
2023-10-08T10:02:31.973Z,11.42
2023-10-08T10:04:58.708Z,11.40
2023-10-08T10:07:26.421Z,11.36
2023-10-08T10:09:55.818Z,11.33
2023-10-08T10:12:28.721Z,11.31
2023-10-08T10:14:57.003Z,11.31
2023-10-08T10:17:42.540Z,11.31
2023-10-08T10:20:14.159Z,11.30
2023-10-08T10:22:44.065Z,11.28
2023-10-08T10:25:20.022Z,11.26
2023-10-08T10:28:04.686Z,11.22
2023-10-08T10:30:32.690Z,11.17
2023-10-08T10:33:01.428Z,11.11
2023-10-08T10:35:28.664Z,11.06
2023-10-08T10:37:56.076Z,11.02
2023-10-08T10:40:41.553Z,10.97
2023-10-08T10:43:09.905Z,10.93
2023-10-08T10:47:26.674Z,10.90
2023-10-08T10:50:06.140Z,10.85
2023-10-08T10:52:35.099Z,10.78
2023-10-08T10:55:21.082Z,10.71
2023-10-08T10:57:56.966Z,10.69
2023-10-08T11:00:33.530Z,10.69
2023-10-08T11:03:16.678Z,10.66
2023-10-08T11:05:50.989Z,10.64
2023-10-08T11:08:23.613Z,10.60
2023-10-08T11:10:53.856Z,10.54
2023-10-08T11:13:21.940Z,10.49
2023-10-08T11:15:52.304Z,10.48
2023-10-08T11:18:23.688Z,10.46
2023-10-08T11:21:14.412Z,10.41
2023-10-08T11:23:53.084Z,10.38
2023-10-08T11:26:22.378Z,10.36
2023-10-08T11:28:48.992Z,10.35
2023-10-08T11:31:20.252Z,10.37
2023-10-08T11:33:56.880Z,10.41
2023-10-08T11:36:31.226Z,10.46
2023-10-08T11:39:12.240Z,10.49
2023-10-08T11:41:51.008Z,10.50
2023-10-08T11:44:20.479Z,10.53
2023-10-08T11:46:52.398Z,10.54
2023-10-08T11:49:19.645Z,10.56
2023-10-08T11:51:46.658Z,10.58
2023-10-08T11:54:15.045Z,10.61
2023-10-08T11:56:41.872Z,10.62
2023-10-08T11:59:12.762Z,10.63
2023-10-08T12:01:42.941Z,10.65
2023-10-08T12:04:16.178Z,10.68
2023-10-08T12:06:52.885Z,10.70
2023-10-08T12:09:22.422Z,10.73
2023-10-08T12:11:49.450Z,10.74
2023-10-08T12:14:16.098Z,10.75
2023-10-08T12:16:46.134Z,10.75
2023-10-08T12:19:16.072Z,10.74
2023-10-08T12:21:46.799Z,10.75
2023-10-08T12:24:13.902Z,10.76
2023-10-08T12:26:46.106Z,10.76
2023-10-08T12:29:19.779Z,10.77
2023-10-08T12:31:48.130Z,10.78
2023-10-08T12:34:15.654Z,10.75
2023-10-08T12:36:42.999Z,10.73
2023-10-08T12:39:14.956Z,10.73
2023-10-08T12:41:44.986Z,10.74
2023-10-08T12:44:12.494Z,10.76
2023-10-08T12:46:40.008Z,10.79
2023-10-08T12:49:07.675Z,10.82
2023-10-08T12:51:36.138Z,10.85
2023-10-08T12:54:11.650Z,10.88
2023-10-08T12:56:49.338Z,10.93
2023-10-08T12:59:22.970Z,10.98
2023-10-08T13:01:54.657Z,11.04
2023-10-08T13:04:35.428Z,11.07
2023-10-08T13:07:03.526Z,11.10
2023-10-08T13:09:37.288Z,11.11
2023-10-08T13:12:06.150Z,11.10
2023-10-08T13:14:35.616Z,11.10
2023-10-08T13:17:04.839Z,11.11
2023-10-08T23:04:04.482Z,5.49
2023-10-08T23:06:33.526Z,5.46
2023-10-08T23:09:00.545Z,5.46
2023-10-08T23:11:28.091Z,5.44
2023-10-08T23:13:57.290Z,5.43
2023-10-08T23:16:24.248Z,5.44
2023-10-08T23:18:51.267Z,5.45
2023-10-08T23:21:18.030Z,5.47
2023-10-08T23:23:47.321Z,5.49
2023-10-08T23:26:16.444Z,5.50
2023-10-08T23:28:44.394Z,5.53
2023-10-08T23:31:11.658Z,5.55
2023-10-08T23:33:47.428Z,5.58
2023-10-08T23:36:14.129Z,5.61
2023-10-08T23:38:42.435Z,5.63
2023-10-08T23:41:16.128Z,5.65
2023-10-08T23:43:53.851Z,5.66
2023-10-08T23:46:30.746Z,5.68
2023-10-08T23:49:16.452Z,5.69
2023-10-08T23:51:46.739Z,5.70
2023-10-08T23:54:25.328Z,5.71
2023-10-08T23:56:58.113Z,5.71
2023-10-08T23:59:40.413Z,5.70
